sensor_id;sensor_type;location;lat;lon;timestamp;temperature;humidity
60848;DHT22;46681;47.696;9.140;2023-02-18T00:01:42;12.10;59.50
60848;DHT22;46681;47.696;9.140;2023-02-18T00:04:16;12.10;59.70
60848;DHT22;46681;47.696;9.140;2023-02-18T00:06:41;12.10;59.60
60848;DHT22;46681;47.696;9.140;2023-02-18T00:09:11;12.10;59.60
60848;DHT22;46681;47.696;9.140;2023-02-18T00:11:38;12.10;59.80
60848;DHT22;46681;47.696;9.140;2023-02-18T00:14:09;12.10;59.80
60848;DHT22;46681;47.696;9.140;2023-02-18T00:16:36;12.10;59.80
60848;DHT22;46681;47.696;9.140;2023-02-18T00:19:05;12.10;59.80
60848;DHT22;46681;47.696;9.140;2023-02-18T00:21:34;12.10;59.80
60848;DHT22;46681;47.696;9.140;2023-02-18T00:24:00;12.10;59.80
60848;DHT22;46681;47.696;9.140;2023-02-18T00:26:26;12.10;60.00
60848;DHT22;46681;47.696;9.140;2023-02-18T00:28:51;12.10;59.90
60848;DHT22;46681;47.696;9.140;2023-02-18T00:31:32;12.10;60.20
60848;DHT22;46681;47.696;9.140;2023-02-18T00:33:58;12.10;60.40
60848;DHT22;46681;47.696;9.140;2023-02-18T00:36:24;12.10;60.40
60848;DHT22;46681;47.696;9.140;2023-02-18T00:38:52;12.10;60.30
60848;DHT22;46681;47.696;9.140;2023-02-18T00:41:19;12.10;60.40
60848;DHT22;46681;47.696;9.140;2023-02-18T00:43:51;12.10;61.00
60848;DHT22;46681;47.696;9.140;2023-02-18T00:46:17;12.10;60.40
60848;DHT22;46681;47.696;9.140;2023-02-18T00:48:43;12.20;60.40
60848;DHT22;46681;47.696;9.140;2023-02-18T00:51:09;12.20;60.50
60848;DHT22;46681;47.696;9.140;2023-02-18T00:53:36;12.20;60.60
60848;DHT22;46681;47.696;9.140;2023-02-18T00:56:02;12.20;60.90
60848;DHT22;46681;47.696;9.140;2023-02-18T00:58:31;12.10;60.80
60848;DHT22;46681;47.696;9.140;2023-02-18T01:00:57;12.20;60.90
60848;DHT22;46681;47.696;9.140;2023-02-18T01:03:30;12.20;60.90
60848;DHT22;46681;47.696;9.140;2023-02-18T01:05:56;12.10;61.20
60848;DHT22;46681;47.696;9.140;2023-02-18T01:08:24;12.10;61.40
60848;DHT22;46681;47.696;9.140;2023-02-18T01:10:55;12.10;61.50
60848;DHT22;46681;47.696;9.140;2023-02-18T01:13:22;12.10;61.60
60848;DHT22;46681;47.696;9.140;2023-02-18T01:15:49;12.10;61.80
60848;DHT22;46681;47.696;9.140;2023-02-18T01:18:17;12.10;61.70
60848;DHT22;46681;47.696;9.140;2023-02-18T01:20:43;12.20;61.90
60848;DHT22;46681;47.696;9.140;2023-02-18T01:23:12;12.20;62.00
60848;DHT22;46681;47.696;9.140;2023-02-18T01:25:38;12.20;62.10
60848;DHT22;46681;47.696;9.140;2023-02-18T01:28:05;12.20;62.10
60848;DHT22;46681;47.696;9.140;2023-02-18T01:30:32;12.20;62.10
60848;DHT22;46681;47.696;9.140;2023-02-18T01:32:58;12.20;62.10
60848;DHT22;46681;47.696;9.140;2023-02-18T01:35:28;12.20;62.20
60848;DHT22;46681;47.696;9.140;2023-02-18T01:37:54;12.20;62.10
60848;DHT22;46681;47.696;9.140;2023-02-18T01:40:25;12.20;62.20
60848;DHT22;46681;47.696;9.140;2023-02-18T01:42:52;12.20;62.10
60848;DHT22;46681;47.696;9.140;2023-02-18T01:48:19;12.20;62.00
60848;DHT22;46681;47.696;9.140;2023-02-18T01:50:51;12.20;62.10
60848;DHT22;46681;47.696;9.140;2023-02-18T01:53:29;12.20;62.00
60848;DHT22;46681;47.696;9.140;2023-02-18T01:55:59;12.20;61.90
60848;DHT22;46681;47.696;9.140;2023-02-18T01:58:27;12.20;62.00
60848;DHT22;46681;47.696;9.140;2023-02-18T02:00:52;12.20;62.00
60848;DHT22;46681;47.696;9.140;2023-02-18T02:03:18;12.20;61.90
60848;DHT22;46681;47.696;9.140;2023-02-18T02:05:43;12.20;62.00
60848;DHT22;46681;47.696;9.140;2023-02-18T02:08:09;12.20;62.10
60848;DHT22;46681;47.696;9.140;2023-02-18T02:11:16;12.20;62.20
60848;DHT22;46681;47.696;9.140;2023-02-18T02:13:58;12.20;62.10
60848;DHT22;46681;47.696;9.140;2023-02-18T02:16:48;12.20;62.20
60848;DHT22;46681;47.696;9.140;2023-02-18T02:24:53;12.20;62.10
60848;DHT22;46681;47.696;9.140;2023-02-18T02:36:13;12.20;62.00
60848;DHT22;46681;47.696;9.140;2023-02-18T02:41:45;12.20;61.90
60848;DHT22;46681;47.696;9.140;2023-02-18T02:47:53;12.20;61.70
60848;DHT22;46681;47.696;9.140;2023-02-18T02:50:05;12.20;61.80
60848;DHT22;46681;47.696;9.140;2023-02-18T02:52:44;12.20;61.80
60848;DHT22;46681;47.696;9.140;2023-02-18T02:55:11;12.20;61.80
60848;DHT22;46681;47.696;9.140;2023-02-18T02:57:47;12.20;61.80
60848;DHT22;46681;47.696;9.140;2023-02-18T03:00:15;12.20;61.80
60848;DHT22;46681;47.696;9.140;2023-02-18T03:08:46;12.20;61.90
60848;DHT22;46681;47.696;9.140;2023-02-18T03:11:16;12.20;62.00
60848;DHT22;46681;47.696;9.140;2023-02-18T03:16:34;12.20;61.90
60848;DHT22;46681;47.696;9.140;2023-02-18T03:19:28;12.20;62.00
60848;DHT22;46681;47.696;9.140;2023-02-18T03:22:40;12.20;62.10
60848;DHT22;46681;47.696;9.140;2023-02-18T03:24:50;12.20;62.10
60848;DHT22;46681;47.696;9.140;2023-02-18T03:27:48;12.20;62.10
60848;DHT22;46681;47.696;9.140;2023-02-18T03:30:53;12.20;62.10
60848;DHT22;46681;47.696;9.140;2023-02-18T03:33:39;12.20;62.10
60848;DHT22;46681;47.696;9.140;2023-02-18T03:36:10;12.20;62.10
60848;DHT22;46681;47.696;9.140;2023-02-18T03:38:39;12.20;62.10
60848;DHT22;46681;47.696;9.140;2023-02-18T03:41:12;12.20;62.10
60848;DHT22;46681;47.696;9.140;2023-02-18T03:43:40;12.20;62.20
60848;DHT22;46681;47.696;9.140;2023-02-18T03:46:13;12.20;62.20
60848;DHT22;46681;47.696;9.140;2023-02-18T03:48:38;12.20;62.20
60848;DHT22;46681;47.696;9.140;2023-02-18T03:51:04;12.20;62.10
60848;DHT22;46681;47.696;9.140;2023-02-18T03:53:29;12.20;62.20
60848;DHT22;46681;47.696;9.140;2023-02-18T03:55:55;12.20;62.20
60848;DHT22;46681;47.696;9.140;2023-02-18T03:58:20;12.10;62.10
60848;DHT22;46681;47.696;9.140;2023-02-18T04:00:54;12.10;62.20
60848;DHT22;46681;47.696;9.140;2023-02-18T04:03:20;12.20;62.20
60848;DHT22;46681;47.696;9.140;2023-02-18T04:05:46;12.20;62.30
60848;DHT22;46681;47.696;9.140;2023-02-18T04:08:13;12.20;62.30
60848;DHT22;46681;47.696;9.140;2023-02-18T04:10:38;12.20;62.20
60848;DHT22;46681;47.696;9.140;2023-02-18T04:13:04;12.20;62.20
60848;DHT22;46681;47.696;9.140;2023-02-18T04:15:30;12.20;62.70
60848;DHT22;46681;47.696;9.140;2023-02-18T04:17:56;12.20;62.20
60848;DHT22;46681;47.696;9.140;2023-02-18T04:20:21;12.20;62.20
60848;DHT22;46681;47.696;9.140;2023-02-18T04:22:47;12.20;62.10
60848;DHT22;46681;47.696;9.140;2023-02-18T04:25:13;12.10;62.10
60848;DHT22;46681;47.696;9.140;2023-02-18T04:27:38;12.20;62.20
60848;DHT22;46681;47.696;9.140;2023-02-18T04:30:04;12.20;62.10
60848;DHT22;46681;47.696;9.140;2023-02-18T04:32:30;12.20;62.10
60848;DHT22;46681;47.696;9.140;2023-02-18T04:34:56;12.20;62.10
60848;DHT22;46681;47.696;9.140;2023-02-18T04:37:21;12.20;62.20
60848;DHT22;46681;47.696;9.140;2023-02-18T04:39:47;12.20;62.10
60848;DHT22;46681;47.696;9.140;2023-02-18T04:42:13;12.20;62.10
60848;DHT22;46681;47.696;9.140;2023-02-18T04:44:38;12.10;62.00
60848;DHT22;46681;47.696;9.140;2023-02-18T04:47:05;12.20;62.00
60848;DHT22;46681;47.696;9.140;2023-02-18T04:49:31;12.10;62.50
60848;DHT22;46681;47.696;9.140;2023-02-18T04:52:00;12.20;62.00
60848;DHT22;46681;47.696;9.140;2023-02-18T04:54:27;12.10;61.90
60848;DHT22;46681;47.696;9.140;2023-02-18T04:56:52;12.10;62.00
60848;DHT22;46681;47.696;9.140;2023-02-18T04:59:20;12.20;62.10
60848;DHT22;46681;47.696;9.140;2023-02-18T05:01:45;12.10;62.00
60848;DHT22;46681;47.696;9.140;2023-02-18T05:04:12;12.10;61.90
60848;DHT22;46681;47.696;9.140;2023-02-18T05:06:40;12.10;61.90
60848;DHT22;46681;47.696;9.140;2023-02-18T05:09:06;12.10;61.90
60848;DHT22;46681;47.696;9.140;2023-02-18T05:11:31;12.10;62.00
60848;DHT22;46681;47.696;9.140;2023-02-18T05:13:57;12.10;62.00
60848;DHT22;46681;47.696;9.140;2023-02-18T05:16:22;12.10;62.00
60848;DHT22;46681;47.696;9.140;2023-02-18T05:18:48;12.10;62.00
60848;DHT22;46681;47.696;9.140;2023-02-18T05:21:14;12.10;61.90
60848;DHT22;46681;47.696;9.140;2023-02-18T05:23:40;12.20;62.10
60848;DHT22;46681;47.696;9.140;2023-02-18T05:26:06;12.20;61.80
60848;DHT22;46681;47.696;9.140;2023-02-18T05:28:32;12.30;63.10
60848;DHT22;46681;47.696;9.140;2023-02-18T05:31:00;12.30;62.60
60848;DHT22;46681;47.696;9.140;2023-02-18T05:33:27;12.50;64.10
60848;DHT22;46681;47.696;9.140;2023-02-18T05:35:53;12.60;63.20
60848;DHT22;46681;47.696;9.140;2023-02-18T05:38:18;12.50;63.00
60848;DHT22;46681;47.696;9.140;2023-02-18T05:40:44;12.50;62.80
60848;DHT22;46681;47.696;9.140;2023-02-18T05:43:25;12.50;61.80
60848;DHT22;46681;47.696;9.140;2023-02-18T05:45:50;12.50;61.30
60848;DHT22;46681;47.696;9.140;2023-02-18T05:48:17;12.50;62.30
60848;DHT22;46681;47.696;9.140;2023-02-18T05:50:43;12.50;61.40
60848;DHT22;46681;47.696;9.140;2023-02-18T05:53:10;12.50;61.30
60848;DHT22;46681;47.696;9.140;2023-02-18T05:55:35;12.50;61.20
60848;DHT22;46681;47.696;9.140;2023-02-18T05:58:01;12.60;61.40
60848;DHT22;46681;47.696;9.140;2023-02-18T06:00:26;12.60;61.20
60848;DHT22;46681;47.696;9.140;2023-02-18T06:02:52;12.60;62.80
60848;DHT22;46681;47.696;9.140;2023-02-18T06:05:18;12.60;62.10
60848;DHT22;46681;47.696;9.140;2023-02-18T06:07:44;12.60;61.10
60848;DHT22;46681;47.696;9.140;2023-02-18T06:10:13;12.60;61.10
60848;DHT22;46681;47.696;9.140;2023-02-18T06:12:39;12.60;60.00
60848;DHT22;46681;47.696;9.140;2023-02-18T06:15:08;12.50;60.20
60848;DHT22;46681;47.696;9.140;2023-02-18T06:17:34;12.30;60.30
60848;DHT22;46681;47.696;9.140;2023-02-18T06:19:59;12.30;61.10
60848;DHT22;46681;47.696;9.140;2023-02-18T06:22:26;12.40;61.50
60848;DHT22;46681;47.696;9.140;2023-02-18T06:24:53;12.40;61.40
60848;DHT22;46681;47.696;9.140;2023-02-18T06:27:20;12.40;61.50
60848;DHT22;46681;47.696;9.140;2023-02-18T06:29:46;12.40;61.50
60848;DHT22;46681;47.696;9.140;2023-02-18T06:32:11;12.40;61.50
60848;DHT22;46681;47.696;9.140;2023-02-18T06:34:37;12.40;61.30
60848;DHT22;46681;47.696;9.140;2023-02-18T06:37:02;12.30;61.40
60848;DHT22;46681;47.696;9.140;2023-02-18T06:39:28;12.30;61.40
60848;DHT22;46681;47.696;9.140;2023-02-18T06:41:53;12.20;61.40
60848;DHT22;46681;47.696;9.140;2023-02-18T06:44:20;12.20;61.60
60848;DHT22;46681;47.696;9.140;2023-02-18T06:46:46;12.20;61.70
60848;DHT22;46681;47.696;9.140;2023-02-18T06:49:13;12.20;61.50
60848;DHT22;46681;47.696;9.140;2023-02-18T06:51:40;12.20;61.70
60848;DHT22;46681;47.696;9.140;2023-02-18T06:54:05;12.10;61.70
60848;DHT22;46681;47.696;9.140;2023-02-18T06:56:31;12.10;61.60
60848;DHT22;46681;47.696;9.140;2023-02-18T06:58:57;12.10;61.70
60848;DHT22;46681;47.696;9.140;2023-02-18T07:01:30;12.10;61.60
60848;DHT22;46681;47.696;9.140;2023-02-18T07:03:57;12.10;61.70
60848;DHT22;46681;47.696;9.140;2023-02-18T07:06:25;12.10;61.60
60848;DHT22;46681;47.696;9.140;2023-02-18T07:08:52;12.10;61.50
60848;DHT22;46681;47.696;9.140;2023-02-18T07:11:20;12.10;61.60
60848;DHT22;46681;47.696;9.140;2023-02-18T07:13:46;12.10;61.50
60848;DHT22;46681;47.696;9.140;2023-02-18T07:16:15;12.10;61.50
60848;DHT22;46681;47.696;9.140;2023-02-18T07:18:43;12.10;61.50
60848;DHT22;46681;47.696;9.140;2023-02-18T07:21:08;12.10;61.40
60848;DHT22;46681;47.696;9.140;2023-02-18T07:23:34;12.10;61.50
60848;DHT22;46681;47.696;9.140;2023-02-18T07:26:10;12.10;62.00
60848;DHT22;46681;47.696;9.140;2023-02-18T07:28:38;12.10;61.50
60848;DHT22;46681;47.696;9.140;2023-02-18T07:31:08;12.10;61.50
60848;DHT22;46681;47.696;9.140;2023-02-18T07:33:33;12.10;61.30
60848;DHT22;46681;47.696;9.140;2023-02-18T07:36:00;12.10;61.30
60848;DHT22;46681;47.696;9.140;2023-02-18T07:38:27;12.20;61.50
60848;DHT22;46681;47.696;9.140;2023-02-18T07:40:53;12.20;61.30
60848;DHT22;46681;47.696;9.140;2023-02-18T07:43:19;12.20;61.20
60848;DHT22;46681;47.696;9.140;2023-02-18T07:45:58;12.20;61.20
60848;DHT22;46681;47.696;9.140;2023-02-18T07:48:23;12.30;61.20
60848;DHT22;46681;47.696;9.140;2023-02-18T07:51:00;12.30;61.20
60848;DHT22;46681;47.696;9.140;2023-02-18T07:53:26;12.30;61.10
60848;DHT22;46681;47.696;9.140;2023-02-18T07:55:52;12.30;61.10
60848;DHT22;46681;47.696;9.140;2023-02-18T07:58:28;12.40;61.10
60848;DHT22;46681;47.696;9.140;2023-02-18T08:01:09;12.40;61.00
60848;DHT22;46681;47.696;9.140;2023-02-18T08:03:42;12.40;61.10
60848;DHT22;46681;47.696;9.140;2023-02-18T08:06:24;12.40;61.10
60848;DHT22;46681;47.696;9.140;2023-02-18T08:08:53;12.40;61.00
60848;DHT22;46681;47.696;9.140;2023-02-18T08:11:21;12.50;61.00
60848;DHT22;46681;47.696;9.140;2023-02-18T08:13:47;12.50;60.90
60848;DHT22;46681;47.696;9.140;2023-02-18T08:16:17;12.50;60.90
60848;DHT22;46681;47.696;9.140;2023-02-18T08:18:55;12.60;60.80
60848;DHT22;46681;47.696;9.140;2023-02-18T08:21:22;12.60;60.70
60848;DHT22;46681;47.696;9.140;2023-02-18T08:23:48;12.60;60.60
60848;DHT22;46681;47.696;9.140;2023-02-18T08:26:19;12.70;60.60
60848;DHT22;46681;47.696;9.140;2023-02-18T08:28:48;12.70;60.50
60848;DHT22;46681;47.696;9.140;2023-02-18T08:31:28;12.70;60.30
60848;DHT22;46681;47.696;9.140;2023-02-18T08:33:57;12.80;60.30
60848;DHT22;46681;47.696;9.140;2023-02-18T08:36:27;12.80;60.20
60848;DHT22;46681;47.696;9.140;2023-02-18T08:38:53;12.90;60.20
60848;DHT22;46681;47.696;9.140;2023-02-18T08:41:24;12.90;60.20
60848;DHT22;46681;47.696;9.140;2023-02-18T08:43:50;12.90;60.10
60848;DHT22;46681;47.696;9.140;2023-02-18T08:46:16;12.90;60.00
60848;DHT22;46681;47.696;9.140;2023-02-18T08:48:43;12.90;60.10
60848;DHT22;46681;47.696;9.140;2023-02-18T08:51:19;13.00;60.40
60848;DHT22;46681;47.696;9.140;2023-02-18T08:53:55;13.00;62.10
60848;DHT22;46681;47.696;9.140;2023-02-18T08:56:22;13.10;62.50
60848;DHT22;46681;47.696;9.140;2023-02-18T08:58:53;13.20;61.70
60848;DHT22;46681;47.696;9.140;2023-02-18T09:01:20;13.20;61.40
60848;DHT22;46681;47.696;9.140;2023-02-18T09:03:46;13.20;61.10
60848;DHT22;46681;47.696;9.140;2023-02-18T09:06:13;13.20;60.80
60848;DHT22;46681;47.696;9.140;2023-02-18T09:08:42;13.20;60.70
60848;DHT22;46681;47.696;9.140;2023-02-18T09:11:17;13.20;60.70
60848;DHT22;46681;47.696;9.140;2023-02-18T09:13:57;13.30;60.50
60848;DHT22;46681;47.696;9.140;2023-02-18T09:16:38;13.30;60.40
60848;DHT22;46681;47.696;9.140;2023-02-18T09:19:10;13.30;60.40
60848;DHT22;46681;47.696;9.140;2023-02-18T09:21:54;13.40;60.70
60848;DHT22;46681;47.696;9.140;2023-02-18T09:24:28;13.40;60.30
60848;DHT22;46681;47.696;9.140;2023-02-18T09:26:55;13.50;60.20
60848;DHT22;46681;47.696;9.140;2023-02-18T09:29:23;13.50;60.00
60848;DHT22;46681;47.696;9.140;2023-02-18T09:31:51;13.60;60.00
60848;DHT22;46681;47.696;9.140;2023-02-18T09:34:16;13.60;59.60
60848;DHT22;46681;47.696;9.140;2023-02-18T09:36:50;13.60;59.60
60848;DHT22;46681;47.696;9.140;2023-02-18T09:39:16;13.70;59.80
60848;DHT22;46681;47.696;9.140;2023-02-18T09:41:57;13.70;59.50
60848;DHT22;46681;47.696;9.140;2023-02-18T09:44:53;13.80;59.50
60848;DHT22;46681;47.696;9.140;2023-02-18T09:47:24;13.80;59.10
60848;DHT22;46681;47.696;9.140;2023-02-18T09:52:45;13.90;59.00
60848;DHT22;46681;47.696;9.140;2023-02-18T09:55:37;13.80;58.90
60848;DHT22;46681;47.696;9.140;2023-02-18T09:58:27;13.90;59.10
60848;DHT22;46681;47.696;9.140;2023-02-18T10:01:31;13.90;59.20
60848;DHT22;46681;47.696;9.140;2023-02-18T10:04:23;14.00;59.40
60848;DHT22;46681;47.696;9.140;2023-02-18T10:10:15;14.10;59.10
60848;DHT22;46681;47.696;9.140;2023-02-18T10:12:52;14.10;59.00
60848;DHT22;46681;47.696;9.140;2023-02-18T10:15:31;14.10;58.90
60848;DHT22;46681;47.696;9.140;2023-02-18T10:18:02;14.10;58.90
60848;DHT22;46681;47.696;9.140;2023-02-18T10:20:42;14.10;58.80
60848;DHT22;46681;47.696;9.140;2023-02-18T10:23:15;14.10;58.80
60848;DHT22;46681;47.696;9.140;2023-02-18T10:26:11;14.00;58.70
60848;DHT22;46681;47.696;9.140;2023-02-18T10:28:56;14.00;58.90
60848;DHT22;46681;47.696;9.140;2023-02-18T10:31:37;14.00;58.70
60848;DHT22;46681;47.696;9.140;2023-02-18T10:42:49;14.00;58.60
60848;DHT22;46681;47.696;9.140;2023-02-18T10:51:00;14.00;58.40
60848;DHT22;46681;47.696;9.140;2023-02-18T10:53:41;14.10;58.40
60848;DHT22;46681;47.696;9.140;2023-02-18T10:56:37;14.10;58.30
60848;DHT22;46681;47.696;9.140;2023-02-18T10:59:37;14.10;58.30
60848;DHT22;46681;47.696;9.140;2023-02-18T11:02:13;14.10;58.20
60848;DHT22;46681;47.696;9.140;2023-02-18T11:04:46;14.10;58.10
60848;DHT22;46681;47.696;9.140;2023-02-18T11:07:20;14.20;58.10
60848;DHT22;46681;47.696;9.140;2023-02-18T11:12:59;14.30;57.90
60848;DHT22;46681;47.696;9.140;2023-02-18T11:16:06;14.30;57.70
60848;DHT22;46681;47.696;9.140;2023-02-18T11:18:44;14.40;57.70
60848;DHT22;46681;47.696;9.140;2023-02-18T11:24:20;14.40;57.30
60848;DHT22;46681;47.696;9.140;2023-02-18T11:26:53;14.40;57.20
60848;DHT22;46681;47.696;9.140;2023-02-18T11:29:27;14.50;57.30
60848;DHT22;46681;47.696;9.140;2023-02-18T11:32:03;14.40;57.20
60848;DHT22;46681;47.696;9.140;2023-02-18T11:34:44;14.50;57.20
60848;DHT22;46681;47.696;9.140;2023-02-18T11:37:26;14.50;57.10
60848;DHT22;46681;47.696;9.140;2023-02-18T11:40:03;14.50;57.20
60848;DHT22;46681;47.696;9.140;2023-02-18T11:42:46;14.50;57.10
60848;DHT22;46681;47.696;9.140;2023-02-18T11:45:36;14.50;57.10
60848;DHT22;46681;47.696;9.140;2023-02-18T11:50:34;14.60;56.80
60848;DHT22;46681;47.696;9.140;2023-02-18T11:53:31;14.50;56.90
60848;DHT22;46681;47.696;9.140;2023-02-18T11:56:32;14.50;57.40
60848;DHT22;46681;47.696;9.140;2023-02-18T11:59:02;14.60;56.10
60848;DHT22;46681;47.696;9.140;2023-02-18T12:01:52;14.70;56.30
60848;DHT22;46681;47.696;9.140;2023-02-18T12:04:34;14.70;55.80
60848;DHT22;46681;47.696;9.140;2023-02-18T12:07:14;14.70;55.30
60848;DHT22;46681;47.696;9.140;2023-02-18T12:09:49;14.70;55.40
60848;DHT22;46681;47.696;9.140;2023-02-18T12:12:40;14.70;55.40
60848;DHT22;46681;47.696;9.140;2023-02-18T12:21:17;15.00;55.30
60848;DHT22;46681;47.696;9.140;2023-02-18T12:33:43;15.40;54.70
60848;DHT22;46681;47.696;9.140;2023-02-18T12:42:04;15.50;54.00
60848;DHT22;46681;47.696;9.140;2023-02-18T12:53:45;15.70;53.90
60848;DHT22;46681;47.696;9.140;2023-02-18T12:56:43;15.80;54.30
60848;DHT22;46681;47.696;9.140;2023-02-18T12:59:55;15.80;54.20
60848;DHT22;46681;47.696;9.140;2023-02-18T13:02:52;15.90;53.70
60848;DHT22;46681;47.696;9.140;2023-02-18T13:08:39;16.10;53.90
60848;DHT22;46681;47.696;9.140;2023-02-18T13:11:35;16.20;53.70
60848;DHT22;46681;47.696;9.140;2023-02-18T13:14:18;16.50;53.50
60848;DHT22;46681;47.696;9.140;2023-02-18T13:16:46;16.70;53.20
60848;DHT22;46681;47.696;9.140;2023-02-18T13:19:23;16.90;52.70
60848;DHT22;46681;47.696;9.140;2023-02-18T13:22:03;17.10;52.80
60848;DHT22;46681;47.696;9.140;2023-02-18T13:24:44;17.30;51.90
60848;DHT22;46681;47.696;9.140;2023-02-18T13:27:23;17.30;51.70
60848;DHT22;46681;47.696;9.140;2023-02-18T13:36:35;17.90;50.60
60848;DHT22;46681;47.696;9.140;2023-02-18T13:39:18;18.20;50.20
60848;DHT22;46681;47.696;9.140;2023-02-18T13:42:09;18.40;49.80
60848;DHT22;46681;47.696;9.140;2023-02-18T13:45:04;18.80;49.30
60848;DHT22;46681;47.696;9.140;2023-02-18T13:47:42;18.90;48.70
60848;DHT22;46681;47.696;9.140;2023-02-18T13:55:38;19.00;48.30
60848;DHT22;46681;47.696;9.140;2023-02-18T13:58:13;19.00;48.20
60848;DHT22;46681;47.696;9.140;2023-02-18T14:00:48;19.00;48.20
60848;DHT22;46681;47.696;9.140;2023-02-18T14:06:25;19.10;48.10
60848;DHT22;46681;47.696;9.140;2023-02-18T14:14:46;19.00;48.20
60848;DHT22;46681;47.696;9.140;2023-02-18T14:17:34;18.90;48.10
60848;DHT22;46681;47.696;9.140;2023-02-18T14:27:41;18.90;48.40
60848;DHT22;46681;47.696;9.140;2023-02-18T14:30:59;18.90;48.40
60848;DHT22;46681;47.696;9.140;2023-02-18T14:33:12;18.90;48.10
60848;DHT22;46681;47.696;9.140;2023-02-18T14:44:41;18.60;48.60
60848;DHT22;46681;47.696;9.140;2023-02-18T14:47:34;18.60;48.40
60848;DHT22;46681;47.696;9.140;2023-02-18T14:50:12;18.60;48.50
60848;DHT22;46681;47.696;9.140;2023-02-18T14:52:55;18.60;48.40
60848;DHT22;46681;47.696;9.140;2023-02-18T14:55:45;18.50;48.30
60848;DHT22;46681;47.696;9.140;2023-02-18T14:58:41;18.50;48.40
60848;DHT22;46681;47.696;9.140;2023-02-18T15:01:29;18.40;48.30
60848;DHT22;46681;47.696;9.140;2023-02-18T15:04:00;18.40;48.40
60848;DHT22;46681;47.696;9.140;2023-02-18T15:06:35;18.30;47.50
60848;DHT22;46681;47.696;9.140;2023-02-18T15:09:23;18.20;47.50
60848;DHT22;46681;47.696;9.140;2023-02-18T15:14:43;18.00;47.80
60848;DHT22;46681;47.696;9.140;2023-02-18T15:17:22;17.90;47.50
60848;DHT22;46681;47.696;9.140;2023-02-18T15:20:02;17.70;48.00
60848;DHT22;46681;47.696;9.140;2023-02-18T15:22:31;17.60;47.90
60848;DHT22;46681;47.696;9.140;2023-02-18T15:24:59;17.50;47.90
60848;DHT22;46681;47.696;9.140;2023-02-18T15:27:33;17.50;48.10
60848;DHT22;46681;47.696;9.140;2023-02-18T15:30:19;17.40;48.30
60848;DHT22;46681;47.696;9.140;2023-02-18T15:33:00;17.30;48.30
60848;DHT22;46681;47.696;9.140;2023-02-18T15:35:31;17.30;48.70
60848;DHT22;46681;47.696;9.140;2023-02-18T15:38:02;17.20;49.00
60848;DHT22;46681;47.696;9.140;2023-02-18T15:40:30;17.10;49.30
60848;DHT22;46681;47.696;9.140;2023-02-18T15:43:01;17.10;49.30
60848;DHT22;46681;47.696;9.140;2023-02-18T15:45:52;17.00;49.70
60848;DHT22;46681;47.696;9.140;2023-02-18T15:48:33;16.90;49.40
60848;DHT22;46681;47.696;9.140;2023-02-18T15:51:19;16.90;49.70
60848;DHT22;46681;47.696;9.140;2023-02-18T15:54:03;16.80;49.60
60848;DHT22;46681;47.696;9.140;2023-02-18T15:56:38;16.70;49.60
60848;DHT22;46681;47.696;9.140;2023-02-18T15:59:20;16.70;49.90
60848;DHT22;46681;47.696;9.140;2023-02-18T16:02:21;16.60;50.30
60848;DHT22;46681;47.696;9.140;2023-02-18T16:04:54;16.60;50.10
60848;DHT22;46681;47.696;9.140;2023-02-18T16:07:30;16.50;50.20
60848;DHT22;46681;47.696;9.140;2023-02-18T16:12:46;16.40;50.90
60848;DHT22;46681;47.696;9.140;2023-02-18T16:15:38;16.30;50.50
60848;DHT22;46681;47.696;9.140;2023-02-18T16:18:26;16.30;50.60
60848;DHT22;46681;47.696;9.140;2023-02-18T16:23:41;16.10;50.80
60848;DHT22;46681;47.696;9.140;2023-02-18T16:29:41;16.00;51.20
60848;DHT22;46681;47.696;9.140;2023-02-18T16:31:43;15.90;51.10
60848;DHT22;46681;47.696;9.140;2023-02-18T16:34:08;15.90;51.40
60848;DHT22;46681;47.696;9.140;2023-02-18T16:36:36;15.90;51.90
60848;DHT22;46681;47.696;9.140;2023-02-18T16:39:02;15.80;52.00
60848;DHT22;46681;47.696;9.140;2023-02-18T16:41:33;15.60;51.10
60848;DHT22;46681;47.696;9.140;2023-02-18T16:43:58;15.40;51.40
60848;DHT22;46681;47.696;9.140;2023-02-18T16:46:25;15.30;51.60
60848;DHT22;46681;47.696;9.140;2023-02-18T16:48:54;15.20;52.10
60848;DHT22;46681;47.696;9.140;2023-02-18T16:51:33;15.30;52.40
60848;DHT22;46681;47.696;9.140;2023-02-18T16:54:03;15.30;52.50
60848;DHT22;46681;47.696;9.140;2023-02-18T16:56:32;15.20;52.20
60848;DHT22;46681;47.696;9.140;2023-02-18T16:58:58;15.20;51.90
60848;DHT22;46681;47.696;9.140;2023-02-18T17:04:03;15.10;52.00
60848;DHT22;46681;47.696;9.140;2023-02-18T17:06:32;15.00;52.30
60848;DHT22;46681;47.696;9.140;2023-02-18T17:09:01;15.00;53.10
60848;DHT22;46681;47.696;9.140;2023-02-18T17:11:36;15.00;53.90
60848;DHT22;46681;47.696;9.140;2023-02-18T17:14:12;15.00;53.70
60848;DHT22;46681;47.696;9.140;2023-02-18T17:16:52;14.90;53.10
60848;DHT22;46681;47.696;9.140;2023-02-18T17:19:21;14.80;53.00
60848;DHT22;46681;47.696;9.140;2023-02-18T17:21:52;14.80;53.00
60848;DHT22;46681;47.696;9.140;2023-02-18T17:24:19;14.70;53.00
60848;DHT22;46681;47.696;9.140;2023-02-18T17:26:47;14.70;53.10
60848;DHT22;46681;47.696;9.140;2023-02-18T17:29:13;14.60;53.30
60848;DHT22;46681;47.696;9.140;2023-02-18T17:32:02;14.60;53.50
60848;DHT22;46681;47.696;9.140;2023-02-18T17:34:29;14.50;53.10
60848;DHT22;46681;47.696;9.140;2023-02-18T17:37:02;14.50;53.20
60848;DHT22;46681;47.696;9.140;2023-02-18T17:39:28;14.40;53.30
60848;DHT22;46681;47.696;9.140;2023-02-18T17:42:00;14.40;53.20
60848;DHT22;46681;47.696;9.140;2023-02-18T17:44:26;14.40;53.20
60848;DHT22;46681;47.696;9.140;2023-02-18T17:46:54;14.30;53.20
60848;DHT22;46681;47.696;9.140;2023-02-18T17:49:19;14.30;53.30
60848;DHT22;46681;47.696;9.140;2023-02-18T17:51:57;14.20;53.30
60848;DHT22;46681;47.696;9.140;2023-02-18T17:54:25;14.20;53.40
60848;DHT22;46681;47.696;9.140;2023-02-18T17:56:56;14.20;53.50
60848;DHT22;46681;47.696;9.140;2023-02-18T17:59:23;14.10;53.50
60848;DHT22;46681;47.696;9.140;2023-02-18T18:01:50;14.10;53.50
60848;DHT22;46681;47.696;9.140;2023-02-18T18:04:18;14.10;53.60
60848;DHT22;46681;47.696;9.140;2023-02-18T18:06:48;14.00;53.50
60848;DHT22;46681;47.696;9.140;2023-02-18T18:09:17;14.00;53.60
60848;DHT22;46681;47.696;9.140;2023-02-18T18:11:46;14.00;54.10
60848;DHT22;46681;47.696;9.140;2023-02-18T18:14:24;13.90;53.80
60848;DHT22;46681;47.696;9.140;2023-02-18T18:17:22;13.90;53.70
60848;DHT22;46681;47.696;9.140;2023-02-18T18:19:50;13.90;53.70
60848;DHT22;46681;47.696;9.140;2023-02-18T18:22:18;13.90;54.00
60848;DHT22;46681;47.696;9.140;2023-02-18T18:25:00;13.80;53.90
60848;DHT22;46681;47.696;9.140;2023-02-18T18:27:25;13.80;53.90
60848;DHT22;46681;47.696;9.140;2023-02-18T18:29:54;13.80;54.00
60848;DHT22;46681;47.696;9.140;2023-02-18T18:32:19;13.80;54.10